sensor_id;sensor_type;location;lat;lon;timestamp;P1;durP1;ratioP1;P2;durP2;ratioP2
46282;SDS011;32017;43.700;11.820;2023-04-03T00:02:13;5.50;;;5.28;;
46282;SDS011;32017;43.700;11.820;2023-04-03T00:04:34;4.88;;;4.65;;
46282;SDS011;32017;43.700;11.820;2023-04-03T00:06:54;4.45;;;4.28;;
46282;SDS011;32017;43.700;11.820;2023-04-03T00:09:14;5.03;;;4.75;;
46282;SDS011;32017;43.700;11.820;2023-04-03T00:11:34;5.13;;;4.90;;
46282;SDS011;32017;43.700;11.820;2023-04-03T00:13:54;4.85;;;4.43;;
46282;SDS011;32017;43.700;11.820;2023-04-03T00:16:14;5.45;;;5.35;;
46282;SDS011;32017;43.700;11.820;2023-04-03T00:18:35;6.07;;;5.65;;
46282;SDS011;32017;43.700;11.820;2023-04-03T00:20:55;6.13;;;5.85;;
46282;SDS011;32017;43.700;11.820;2023-04-03T00:23:16;5.63;;;5.35;;
46282;SDS011;32017;43.700;11.820;2023-04-03T00:25:36;6.07;;;5.97;;
46282;SDS011;32017;43.700;11.820;2023-04-03T00:27:57;5.40;;;5.20;;
46282;SDS011;32017;43.700;11.820;2023-04-03T00:30:17;4.78;;;4.35;;
46282;SDS011;32017;43.700;11.820;2023-04-03T00:32:38;4.55;;;4.45;;
46282;SDS011;32017;43.700;11.820;2023-04-03T00:34:58;5.65;;;5.55;;
46282;SDS011;32017;43.700;11.820;2023-04-03T00:37:18;6.30;;;6.20;;
46282;SDS011;32017;43.700;11.820;2023-04-03T00:39:38;4.05;;;3.85;;
46282;SDS011;32017;43.700;11.820;2023-04-03T00:41:58;4.93;;;4.82;;
46282;SDS011;32017;43.700;11.820;2023-04-03T00:44:23;3.78;;;3.67;;
46282;SDS011;32017;43.700;11.820;2023-04-03T00:46:59;4.65;;;4.55;;
46282;SDS011;32017;43.700;11.820;2023-04-03T00:49:19;5.30;;;5.03;;
46282;SDS011;32017;43.700;11.820;2023-04-03T00:51:39;4.55;;;4.45;;
46282;SDS011;32017;43.700;11.820;2023-04-03T00:54:01;4.53;;;4.22;;
46282;SDS011;32017;43.700;11.820;2023-04-03T00:56:23;6.10;;;5.32;;
46282;SDS011;32017;43.700;11.820;2023-04-03T00:58:54;4.22;;;4.13;;
46282;SDS011;32017;43.700;11.820;2023-04-03T01:01:16;4.60;;;4.35;;
46282;SDS011;32017;43.700;11.820;2023-04-03T01:03:38;4.63;;;4.28;;
46282;SDS011;32017;43.700;11.820;2023-04-03T01:05:58;4.30;;;4.10;;
46282;SDS011;32017;43.700;11.820;2023-04-03T01:08:19;5.45;;;5.18;;
46282;SDS011;32017;43.700;11.820;2023-04-03T01:10:39;5.25;;;5.05;;
46282;SDS011;32017;43.700;11.820;2023-04-03T01:12:59;4.32;;;3.95;;
46282;SDS011;32017;43.700;11.820;2023-04-03T01:15:22;4.28;;;4.18;;
46282;SDS011;32017;43.700;11.820;2023-04-03T01:25:09;4.82;;;4.40;;
46282;SDS011;32017;43.700;11.820;2023-04-03T01:27:30;4.55;;;4.45;;
46282;SDS011;32017;43.700;11.820;2023-04-03T01:29:50;4.53;;;4.38;;
46282;SDS011;32017;43.700;11.820;2023-04-03T01:32:10;4.40;;;4.30;;
46282;SDS011;32017;43.700;11.820;2023-04-03T01:34:31;4.05;;;3.95;;
46282;SDS011;32017;43.700;11.820;2023-04-03T01:36:51;3.58;;;3.47;;
46282;SDS011;32017;43.700;11.820;2023-04-03T01:39:11;4.70;;;4.60;;
46282;SDS011;32017;43.700;11.820;2023-04-03T01:41:32;4.82;;;4.60;;
46282;SDS011;32017;43.700;11.820;2023-04-03T01:43:52;3.28;;;3.15;;
46282;SDS011;32017;43.700;11.820;2023-04-03T01:46:12;4.80;;;4.70;;
46282;SDS011;32017;43.700;11.820;2023-04-03T01:48:33;4.82;;;4.60;;
46282;SDS011;32017;43.700;11.820;2023-04-03T01:50:54;6.30;;;5.85;;
46282;SDS011;32017;43.700;11.820;2023-04-03T01:53:14;4.93;;;4.68;;
46282;SDS011;32017;43.700;11.820;2023-04-03T01:55:34;4.57;;;4.40;;
46282;SDS011;32017;43.700;11.820;2023-04-03T01:57:55;4.40;;;4.32;;
46282;SDS011;32017;43.700;11.820;2023-04-03T02:00:15;4.15;;;4.15;;
46282;SDS011;32017;43.700;11.820;2023-04-03T02:02:35;4.80;;;4.70;;
46282;SDS011;32017;43.700;11.820;2023-04-03T02:04:56;4.32;;;4.13;;
46282;SDS011;32017;43.700;11.820;2023-04-03T02:07:16;4.95;;;4.75;;
46282;SDS011;32017;43.700;11.820;2023-04-03T02:09:36;5.03;;;4.82;;
46282;SDS011;32017;43.700;11.820;2023-04-03T02:11:56;4.47;;;4.38;;
46282;SDS011;32017;43.700;11.820;2023-04-03T02:14:17;4.78;;;4.13;;
46282;SDS011;32017;43.700;11.820;2023-04-03T02:16:37;4.30;;;4.28;;
46282;SDS011;32017;43.700;11.820;2023-04-03T02:18:57;3.70;;;3.60;;
46282;SDS011;32017;43.700;11.820;2023-04-03T02:21:17;4.40;;;4.22;;
46282;SDS011;32017;43.700;11.820;2023-04-03T02:23:37;4.68;;;4.50;;
46282;SDS011;32017;43.700;11.820;2023-04-03T02:26:05;3.95;;;3.92;;
46282;SDS011;32017;43.700;11.820;2023-04-03T02:28:25;4.68;;;4.57;;
46282;SDS011;32017;43.700;11.820;2023-04-03T02:30:45;3.13;;;3.03;;
46282;SDS011;32017;43.700;11.820;2023-04-03T02:33:06;4.82;;;4.82;;
46282;SDS011;32017;43.700;11.820;2023-04-03T02:35:27;3.72;;;3.70;;
46282;SDS011;32017;43.700;11.820;2023-04-03T02:37:47;3.80;;;3.60;;
46282;SDS011;32017;43.700;11.820;2023-04-03T02:40:07;5.18;;;4.88;;
46282;SDS011;32017;43.700;11.820;2023-04-03T02:42:28;3.40;;;3.40;;
46282;SDS011;32017;43.700;11.820;2023-04-03T02:44:48;3.20;;;3.20;;
46282;SDS011;32017;43.700;11.820;2023-04-03T02:47:09;2.75;;;2.65;;
46282;SDS011;32017;43.700;11.820;2023-04-03T02:49:29;3.75;;;3.65;;
46282;SDS011;32017;43.700;11.820;2023-04-03T02:51:49;3.42;;;3.33;;
46282;SDS011;32017;43.700;11.820;2023-04-03T02:54:10;3.05;;;3.05;;
46282;SDS011;32017;43.700;11.820;2023-04-03T02:56:30;3.55;;;3.55;;
46282;SDS011;32017;43.700;11.820;2023-04-03T02:58:51;2.90;;;2.88;;
46282;SDS011;32017;43.700;11.820;2023-04-03T03:01:12;2.95;;;2.95;;
46282;SDS011;32017;43.700;11.820;2023-04-03T03:03:33;3.25;;;3.15;;
46282;SDS011;32017;43.700;11.820;2023-04-03T03:06:10;2.97;;;2.65;;
46282;SDS011;32017;43.700;11.820;2023-04-03T03:08:31;3.38;;;3.38;;
46282;SDS011;32017;43.700;11.820;2023-04-03T03:10:51;3.20;;;3.20;;
46282;SDS011;32017;43.700;11.820;2023-04-03T03:13:11;2.53;;;2.53;;
46282;SDS011;32017;43.700;11.820;2023-04-03T03:15:31;3.38;;;3.38;;
46282;SDS011;32017;43.700;11.820;2023-04-03T03:17:52;2.30;;;2.30;;
46282;SDS011;32017;43.700;11.820;2023-04-03T03:20:12;2.45;;;2.45;;
46282;SDS011;32017;43.700;11.820;2023-04-03T03:22:36;2.85;;;2.83;;
46282;SDS011;32017;43.700;11.820;2023-04-03T03:24:56;2.72;;;2.72;;
46282;SDS011;32017;43.700;11.820;2023-04-03T03:27:16;3.08;;;2.75;;
46282;SDS011;32017;43.700;11.820;2023-04-03T03:29:36;3.10;;;3.05;;
46282;SDS011;32017;43.700;11.820;2023-04-03T03:31:57;2.70;;;2.65;;
46282;SDS011;32017;43.700;11.820;2023-04-03T03:34:17;2.70;;;2.70;;
46282;SDS011;32017;43.700;11.820;2023-04-03T03:36:37;2.33;;;2.33;;
46282;SDS011;32017;43.700;11.820;2023-04-03T03:38:58;2.95;;;2.95;;
46282;SDS011;32017;43.700;11.820;2023-04-03T03:41:18;3.22;;;3.13;;
46282;SDS011;32017;43.700;11.820;2023-04-03T03:43:38;2.63;;;2.63;;
46282;SDS011;32017;43.700;11.820;2023-04-03T03:45:59;2.60;;;2.50;;
46282;SDS011;32017;43.700;11.820;2023-04-03T03:48:19;2.75;;;2.60;;
46282;SDS011;32017;43.700;11.820;2023-04-03T03:50:40;2.60;;;2.50;;
46282;SDS011;32017;43.700;11.820;2023-04-03T03:53:00;3.83;;;3.25;;
46282;SDS011;32017;43.700;11.820;2023-04-03T03:55:20;2.45;;;2.33;;
46282;SDS011;32017;43.700;11.820;2023-04-03T03:57:41;3.33;;;3.20;;
46282;SDS011;32017;43.700;11.820;2023-04-03T04:00:01;2.40;;;2.40;;
46282;SDS011;32017;43.700;11.820;2023-04-03T04:02:22;2.90;;;2.90;;
46282;SDS011;32017;43.700;11.820;2023-04-03T04:04:42;2.63;;;2.63;;
46282;SDS011;32017;43.700;11.820;2023-04-03T04:07:02;2.28;;;2.28;;
46282;SDS011;32017;43.700;11.820;2023-04-03T04:09:23;2.72;;;2.72;;
46282;SDS011;32017;43.700;11.820;2023-04-03T04:11:44;3.13;;;2.95;;
46282;SDS011;32017;43.700;11.820;2023-04-03T04:14:04;2.63;;;2.53;;
46282;SDS011;32017;43.700;11.820;2023-04-03T04:16:24;2.95;;;2.95;;
46282;SDS011;32017;43.700;11.820;2023-04-03T04:18:44;4.28;;;3.38;;
46282;SDS011;32017;43.700;11.820;2023-04-03T04:21:04;3.20;;;3.20;;
46282;SDS011;32017;43.700;11.820;2023-04-03T04:23:24;2.95;;;2.85;;
46282;SDS011;32017;43.700;11.820;2023-04-03T04:25:45;2.65;;;2.65;;
46282;SDS011;32017;43.700;11.820;2023-04-03T04:28:06;2.65;;;2.55;;
46282;SDS011;32017;43.700;11.820;2023-04-03T04:30:26;2.80;;;2.70;;
46282;SDS011;32017;43.700;11.820;2023-04-03T04:32:46;2.78;;;2.67;;
46282;SDS011;32017;43.700;11.820;2023-04-03T04:35:06;2.45;;;2.33;;
46282;SDS011;32017;43.700;11.820;2023-04-03T04:37:27;2.08;;;2.08;;
46282;SDS011;32017;43.700;11.820;2023-04-03T04:39:47;3.13;;;3.00;;
46282;SDS011;32017;43.700;11.820;2023-04-03T04:42:07;2.65;;;2.65;;
46282;SDS011;32017;43.700;11.820;2023-04-03T04:44:31;3.10;;;2.88;;
46282;SDS011;32017;43.700;11.820;2023-04-03T04:46:52;2.95;;;2.95;;
46282;SDS011;32017;43.700;11.820;2023-04-03T04:49:12;2.88;;;2.78;;
46282;SDS011;32017;43.700;11.820;2023-04-03T04:51:32;3.22;;;3.03;;
46282;SDS011;32017;43.700;11.820;2023-04-03T04:54:03;2.90;;;2.80;;
46282;SDS011;32017;43.700;11.820;2023-04-03T04:56:23;2.60;;;2.60;;
46282;SDS011;32017;43.700;11.820;2023-04-03T04:58:44;2.15;;;2.15;;
46282;SDS011;32017;43.700;11.820;2023-04-03T05:01:06;2.97;;;2.90;;
46282;SDS011;32017;43.700;11.820;2023-04-03T05:03:26;3.63;;;3.53;;
46282;SDS011;32017;43.700;11.820;2023-04-03T05:05:46;2.78;;;2.78;;
46282;SDS011;32017;43.700;11.820;2023-04-03T05:08:07;3.03;;;3.03;;
46282;SDS011;32017;43.700;11.820;2023-04-03T05:10:27;5.38;;;2.88;;
46282;SDS011;32017;43.700;11.820;2023-04-03T05:12:47;3.30;;;3.20;;
46282;SDS011;32017;43.700;11.820;2023-04-03T05:15:08;2.92;;;2.83;;
46282;SDS011;32017;43.700;11.820;2023-04-03T05:17:28;3.25;;;2.95;;
46282;SDS011;32017;43.700;11.820;2023-04-03T05:19:48;2.70;;;2.65;;
46282;SDS011;32017;43.700;11.820;2023-04-03T05:22:08;3.10;;;2.90;;
46282;SDS011;32017;43.700;11.820;2023-04-03T05:24:29;2.38;;;2.30;;
46282;SDS011;32017;43.700;11.820;2023-04-03T05:26:49;2.45;;;2.28;;
46282;SDS011;32017;43.700;11.820;2023-04-03T05:29:09;2.85;;;2.65;;
46282;SDS011;32017;43.700;11.820;2023-04-03T05:31:30;2.53;;;2.42;;
46282;SDS011;32017;43.700;11.820;2023-04-03T05:33:50;2.90;;;2.88;;
46282;SDS011;32017;43.700;11.820;2023-04-03T05:36:10;3.45;;;3.15;;
46282;SDS011;32017;43.700;11.820;2023-04-03T05:38:32;2.60;;;2.50;;
46282;SDS011;32017;43.700;11.820;2023-04-03T05:40:52;3.45;;;3.17;;
46282;SDS011;32017;43.700;11.820;2023-04-03T05:43:12;2.55;;;2.30;;
46282;SDS011;32017;43.700;11.820;2023-04-03T05:45:32;2.28;;;2.17;;
46282;SDS011;32017;43.700;11.820;2023-04-03T05:47:53;2.45;;;2.25;;
46282;SDS011;32017;43.700;11.820;2023-04-03T05:50:13;3.55;;;3.33;;
46282;SDS011;32017;43.700;11.820;2023-04-03T05:52:37;2.75;;;2.55;;
46282;SDS011;32017;43.700;11.820;2023-04-03T05:54:59;3.13;;;2.97;;
46282;SDS011;32017;43.700;11.820;2023-04-03T05:57:19;2.50;;;2.40;;
46282;SDS011;32017;43.700;11.820;2023-04-03T05:59:40;2.97;;;2.85;;
46282;SDS011;32017;43.700;11.820;2023-04-03T06:02:00;3.17;;;2.97;;
46282;SDS011;32017;43.700;11.820;2023-04-03T06:04:22;2.95;;;2.92;;
46282;SDS011;32017;43.700;11.820;2023-04-03T06:06:52;3.35;;;3.22;;
46282;SDS011;32017;43.700;11.820;2023-04-03T06:09:13;2.80;;;2.58;;
46282;SDS011;32017;43.700;11.820;2023-04-03T06:11:34;2.50;;;2.40;;
46282;SDS011;32017;43.700;11.820;2023-04-03T06:13:55;3.40;;;2.50;;
46282;SDS011;32017;43.700;11.820;2023-04-03T06:16:15;3.25;;;3.15;;
46282;SDS011;32017;43.700;11.820;2023-04-03T06:18:37;2.22;;;2.20;;
46282;SDS011;32017;43.700;11.820;2023-04-03T06:20:57;3.20;;;3.00;;
46282;SDS011;32017;43.700;11.820;2023-04-03T06:23:17;3.13;;;3.03;;
46282;SDS011;32017;43.700;11.820;2023-04-03T06:25:38;2.33;;;2.33;;
46282;SDS011;32017;43.700;11.820;2023-04-03T06:27:58;2.88;;;2.88;;
46282;SDS011;32017;43.700;11.820;2023-04-03T06:30:19;3.35;;;2.53;;
46282;SDS011;32017;43.700;11.820;2023-04-03T06:32:40;4.95;;;3.38;;
46282;SDS011;32017;43.700;11.820;2023-04-03T06:35:00;3.83;;;3.53;;
46282;SDS011;32017;43.700;11.820;2023-04-03T06:37:23;3.57;;;3.47;;
46282;SDS011;32017;43.700;11.820;2023-04-03T06:39:45;3.00;;;2.88;;
46282;SDS011;32017;43.700;11.820;2023-04-03T06:42:05;3.20;;;3.10;;
46282;SDS011;32017;43.700;11.820;2023-04-03T06:44:25;2.60;;;2.60;;
46282;SDS011;32017;43.700;11.820;2023-04-03T06:46:45;2.40;;;2.30;;
46282;SDS011;32017;43.700;11.820;2023-04-03T06:49:06;2.92;;;2.45;;
46282;SDS011;32017;43.700;11.820;2023-04-03T06:51:27;2.97;;;2.78;;
46282;SDS011;32017;43.700;11.820;2023-04-03T06:53:49;2.55;;;2.45;;
46282;SDS011;32017;43.700;11.820;2023-04-03T06:56:10;3.63;;;2.50;;
46282;SDS011;32017;43.700;11.820;2023-04-03T06:58:30;2.38;;;2.35;;
46282;SDS011;32017;43.700;11.820;2023-04-03T07:00:50;2.92;;;2.90;;
46282;SDS011;32017;43.700;11.820;2023-04-03T07:03:10;3.30;;;3.22;;
46282;SDS011;32017;43.700;11.820;2023-04-03T07:05:30;3.10;;;3.00;;
46282;SDS011;32017;43.700;11.820;2023-04-03T07:07:51;2.40;;;2.30;;
46282;SDS011;32017;43.700;11.820;2023-04-03T07:10:11;4.82;;;2.90;;
46282;SDS011;32017;43.700;11.820;2023-04-03T07:12:32;3.53;;;3.42;;
46282;SDS011;32017;43.700;11.820;2023-04-03T07:14:52;3.13;;;2.85;;
46282;SDS011;32017;43.700;11.820;2023-04-03T07:17:12;2.92;;;2.60;;
46282;SDS011;32017;43.700;11.820;2023-04-03T07:19:32;2.90;;;2.80;;
46282;SDS011;32017;43.700;11.820;2023-04-03T07:21:53;2.53;;;2.33;;
46282;SDS011;32017;43.700;11.820;2023-04-03T07:24:13;2.70;;;2.58;;
46282;SDS011;32017;43.700;11.820;2023-04-03T07:26:35;2.78;;;2.78;;
46282;SDS011;32017;43.700;11.820;2023-04-03T07:28:56;3.28;;;3.17;;
46282;SDS011;32017;43.700;11.820;2023-04-03T07:31:16;3.15;;;2.53;;
46282;SDS011;32017;43.700;11.820;2023-04-03T07:33:38;2.95;;;2.88;;
46282;SDS011;32017;43.700;11.820;2023-04-03T07:35:58;2.97;;;2.97;;
46282;SDS011;32017;43.700;11.820;2023-04-03T07:38:18;3.20;;;3.20;;
46282;SDS011;32017;43.700;11.820;2023-04-03T07:40:38;3.63;;;3.50;;
46282;SDS011;32017;43.700;11.820;2023-04-03T07:42:58;2.90;;;2.70;;
46282;SDS011;32017;43.700;11.820;2023-04-03T07:45:19;3.00;;;2.85;;
46282;SDS011;32017;43.700;11.820;2023-04-03T07:47:39;2.38;;;2.28;;
46282;SDS011;32017;43.700;11.820;2023-04-03T07:50:00;2.63;;;2.53;;
46282;SDS011;32017;43.700;11.820;2023-04-03T07:52:20;1.98;;;1.88;;
46282;SDS011;32017;43.700;11.820;2023-04-03T07:54:41;2.22;;;2.13;;
46282;SDS011;32017;43.700;11.820;2023-04-03T07:57:01;3.80;;;3.00;;
46282;SDS011;32017;43.700;11.820;2023-04-03T07:59:21;4.78;;;2.47;;
46282;SDS011;32017;43.700;11.820;2023-04-03T08:01:42;2.42;;;2.38;;
46282;SDS011;32017;43.700;11.820;2023-04-03T08:04:03;2.33;;;2.10;;
46282;SDS011;32017;43.700;11.820;2023-04-03T08:06:24;4.22;;;3.58;;
46282;SDS011;32017;43.700;11.820;2023-04-03T08:09:04;2.90;;;2.85;;
46282;SDS011;32017;43.700;11.820;2023-04-03T08:11:24;2.28;;;2.17;;
46282;SDS011;32017;43.700;11.820;2023-04-03T08:13:45;2.78;;;2.58;;
46282;SDS011;32017;43.700;11.820;2023-04-03T08:16:07;2.88;;;2.78;;
46282;SDS011;32017;43.700;11.820;2023-04-03T08:18:28;3.60;;;3.30;;
46282;SDS011;32017;43.700;11.820;2023-04-03T08:20:48;2.28;;;2.28;;
46282;SDS011;32017;43.700;11.820;2023-04-03T08:23:08;2.55;;;2.35;;
46282;SDS011;32017;43.700;11.820;2023-04-03T08:25:28;2.40;;;2.30;;
46282;SDS011;32017;43.700;11.820;2023-04-03T08:27:48;2.30;;;2.30;;
46282;SDS011;32017;43.700;11.820;2023-04-03T08:30:09;2.17;;;2.17;;
46282;SDS011;32017;43.700;11.820;2023-04-03T08:32:29;2.72;;;2.63;;
46282;SDS011;32017;43.700;11.820;2023-04-03T08:34:50;2.05;;;2.05;;
46282;SDS011;32017;43.700;11.820;2023-04-03T08:37:10;2.42;;;2.38;;
46282;SDS011;32017;43.700;11.820;2023-04-03T08:39:30;3.83;;;3.53;;
46282;SDS011;32017;43.700;11.820;2023-04-03T08:41:50;3.25;;;2.95;;
46282;SDS011;32017;43.700;11.820;2023-04-03T08:46:38;1.80;;;1.80;;
46282;SDS011;32017;43.700;11.820;2023-04-03T08:49:00;2.53;;;2.42;;
46282;SDS011;32017;43.700;11.820;2023-04-03T08:51:20;2.95;;;2.85;;
46282;SDS011;32017;43.700;11.820;2023-04-03T08:53:43;3.03;;;2.30;;
46282;SDS011;32017;43.700;11.820;2023-04-03T08:56:07;2.55;;;2.20;;
46282;SDS011;32017;43.700;11.820;2023-04-03T08:58:29;2.58;;;2.58;;
46282;SDS011;32017;43.700;11.820;2023-04-03T09:03:12;3.03;;;2.65;;
46282;SDS011;32017;43.700;11.820;2023-04-03T09:10:24;2.70;;;2.20;;
46282;SDS011;32017;43.700;11.820;2023-04-03T09:12:45;2.60;;;2.50;;
46282;SDS011;32017;43.700;11.820;2023-04-03T09:15:19;1.77;;;1.77;;
46282;SDS011;32017;43.700;11.820;2023-04-03T09:17:59;1.80;;;1.80;;
46282;SDS011;32017;43.700;11.820;2023-04-03T09:23:04;1.80;;;1.80;;
46282;SDS011;32017;43.700;11.820;2023-04-03T09:25:34;2.05;;;2.05;;
46282;SDS011;32017;43.700;11.820;2023-04-03T09:27:56;2.03;;;1.90;;
46282;SDS011;32017;43.700;11.820;2023-04-03T09:30:21;1.70;;;1.70;;
46282;SDS011;32017;43.700;11.820;2023-04-03T09:32:44;2.53;;;2.40;;
46282;SDS011;32017;43.700;11.820;2023-04-03T09:37:44;2.90;;;2.13;;
46282;SDS011;32017;43.700;11.820;2023-04-03T09:40:11;1.77;;;1.77;;
46282;SDS011;32017;43.700;11.820;2023-04-03T09:42:47;2.85;;;2.75;;
46282;SDS011;32017;43.700;11.820;2023-04-03T09:45:28;5.28;;;3.90;;
46282;SDS011;32017;43.700;11.820;2023-04-03T09:47:49;1.67;;;1.67;;
46282;SDS011;32017;43.700;11.820;2023-04-03T09:50:27;2.08;;;2.08;;
46282;SDS011;32017;43.700;11.820;2023-04-03T09:52:48;2.10;;;2.10;;
46282;SDS011;32017;43.700;11.820;2023-04-03T09:55:43;1.88;;;1.88;;
46282;SDS011;32017;43.700;11.820;2023-04-03T09:57:58;2.08;;;2.08;;
46282;SDS011;32017;43.700;11.820;2023-04-03T10:00:20;2.10;;;2.00;;
46282;SDS011;32017;43.700;11.820;2023-04-03T10:02:40;2.22;;;2.22;;
46282;SDS011;32017;43.700;11.820;2023-04-03T10:05:03;4.13;;;2.40;;
46282;SDS011;32017;43.700;11.820;2023-04-03T10:07:28;3.85;;;2.15;;
46282;SDS011;32017;43.700;11.820;2023-04-03T10:09:54;1.50;;;1.50;;
46282;SDS011;32017;43.700;11.820;2023-04-03T10:12:14;1.88;;;1.88;;
46282;SDS011;32017;43.700;11.820;2023-04-03T10:14:42;1.92;;;1.92;;
46282;SDS011;32017;43.700;11.820;2023-04-03T10:19:43;1.75;;;1.65;;
46282;SDS011;32017;43.700;11.820;2023-04-03T10:22:15;2.20;;;2.10;;
46282;SDS011;32017;43.700;11.820;2023-04-03T10:24:41;4.25;;;3.90;;
46282;SDS011;32017;43.700;11.820;2023-04-03T10:29:30;2.50;;;2.50;;
46282;SDS011;32017;43.700;11.820;2023-04-03T10:34:39;1.45;;;1.45;;
46282;SDS011;32017;43.700;11.820;2023-04-03T10:39:37;1.67;;;1.67;;
46282;SDS011;32017;43.700;11.820;2023-04-03T10:44:59;1.60;;;1.60;;
46282;SDS011;32017;43.700;11.820;2023-04-03T10:47:20;4.00;;;1.90;;
46282;SDS011;32017;43.700;11.820;2023-04-03T10:52:36;2.13;;;1.95;;
46282;SDS011;32017;43.700;11.820;2023-04-03T10:57:21;1.70;;;1.70;;
46282;SDS011;32017;43.700;11.820;2023-04-03T10:59:45;2.50;;;1.73;;
46282;SDS011;32017;43.700;11.820;2023-04-03T11:02:07;3.38;;;3.08;;
46282;SDS011;32017;43.700;11.820;2023-04-03T11:04:33;2.63;;;2.53;;
46282;SDS011;32017;43.700;11.820;2023-04-03T11:07:11;2.45;;;1.90;;
46282;SDS011;32017;43.700;11.820;2023-04-03T11:09:35;5.57;;;2.63;;
46282;SDS011;32017;43.700;11.820;2023-04-03T11:12:01;2.35;;;2.17;;
46282;SDS011;32017;43.700;11.820;2023-04-03T11:14:32;4.10;;;3.85;;
46282;SDS011;32017;43.700;11.820;2023-04-03T11:19:21;1.20;;;1.20;;
46282;SDS011;32017;43.700;11.820;2023-04-03T11:21:48;2.38;;;2.38;;
46282;SDS011;32017;43.700;11.820;2023-04-03T11:24:15;2.35;;;2.25;;
46282;SDS011;32017;43.700;11.820;2023-04-03T11:26:38;2.13;;;2.13;;
46282;SDS011;32017;43.700;11.820;2023-04-03T11:29:08;1.80;;;1.70;;
46282;SDS011;32017;43.700;11.820;2023-04-03T11:36:24;1.88;;;1.55;;
46282;SDS011;32017;43.700;11.820;2023-04-03T11:38:54;1.98;;;1.50;;
46282;SDS011;32017;43.700;11.820;2023-04-03T11:41:15;1.65;;;1.15;;
46282;SDS011;32017;43.700;11.820;2023-04-03T11:48:42;1.92;;;1.48;;
46282;SDS011;32017;43.700;11.820;2023-04-03T11:53:40;1.67;;;1.42;;
46282;SDS011;32017;43.700;11.820;2023-04-03T11:56:26;1.30;;;1.20;;
46282;SDS011;32017;43.700;11.820;2023-04-03T11:58:41;1.50;;;1.45;;
46282;SDS011;32017;43.700;11.820;2023-04-03T12:04:08;1.70;;;1.60;;
46282;SDS011;32017;43.700;11.820;2023-04-03T12:08:52;1.35;;;1.35;;
46282;SDS011;32017;43.700;11.820;2023-04-03T12:16:02;1.20;;;1.20;;
46282;SDS011;32017;43.700;11.820;2023-04-03T12:21:01;1.40;;;1.30;;
46282;SDS011;32017;43.700;11.820;2023-04-03T12:23:27;1.40;;;1.40;;
46282;SDS011;32017;43.700;11.820;2023-04-03T12:25:49;1.40;;;1.40;;
46282;SDS011;32017;43.700;11.820;2023-04-03T12:28:09;2.60;;;1.52;;
46282;SDS011;32017;43.700;11.820;2023-04-03T12:30:30;1.20;;;1.20;;
46282;SDS011;32017;43.700;11.820;2023-04-03T12:35:35;1.42;;;1.40;;
46282;SDS011;32017;43.700;11.820;2023-04-03T12:38:14;1.63;;;1.52;;
46282;SDS011;32017;43.700;11.820;2023-04-03T12:45:39;1.30;;;1.20;;
46282;SDS011;32017;43.700;11.820;2023-04-03T12:48:00;1.40;;;1.40;;
46282;SDS011;32017;43.700;11.820;2023-04-03T12:52:47;1.30;;;1.30;;
46282;SDS011;32017;43.700;11.820;2023-04-03T12:55:17;1.30;;;1.30;;
46282;SDS011;32017;43.700;11.820;2023-04-03T12:57:37;1.20;;;1.20;;
46282;SDS011;32017;43.700;11.820;2023-04-03T12:59:58;1.55;;;1.40;;
46282;SDS011;32017;43.700;11.820;2023-04-03T13:04:43;1.40;;;1.40;;
46282;SDS011;32017;43.700;11.820;2023-04-03T13:07:05;1.30;;;1.30;;
46282;SDS011;32017;43.700;11.820;2023-04-03T13:09:29;3.00;;;1.80;;
46282;SDS011;32017;43.700;11.820;2023-04-03T13:11:53;1.40;;;1.30;;
46282;SDS011;32017;43.700;11.820;2023-04-03T13:14:21;1.10;;;1.10;;
46282;SDS011;32017;43.700;11.820;2023-04-03T13:17:10;1.23;;;1.23;;
46282;SDS011;32017;43.700;11.820;2023-04-03T13:19:31;1.65;;;1.58;;
46282;SDS011;32017;43.700;11.820;2023-04-03T13:22:34;1.52;;;1.52;;
46282;SDS011;32017;43.700;11.820;2023-04-03T13:24:37;2.08;;;1.27;;
46282;SDS011;32017;43.700;11.820;2023-04-03T13:26:58;2.13;;;1.27;;
46282;SDS011;32017;43.700;11.820;2023-04-03T13:29:21;1.42;;;1.38;;
46282;SDS011;32017;43.700;11.820;2023-04-03T13:31:52;1.10;;;1.05;;
46282;SDS011;32017;43.700;11.820;2023-04-03T13:34:13;3.97;;;1.50;;
46282;SDS011;32017;43.700;11.820;2023-04-03T13:36:37;1.48;;;1.38;;
46282;SDS011;32017;43.700;11.820;2023-04-03T13:39:01;1.70;;;1.60;;
46282;SDS011;32017;43.700;11.820;2023-04-03T13:41:26;1.58;;;1.48;;
46282;SDS011;32017;43.700;11.820;2023-04-03T13:43:48;1.48;;;1.40;;
46282;SDS011;32017;43.700;11.820;2023-04-03T13:48:37;1.13;;;1.13;;
46282;SDS011;32017;43.700;11.820;2023-04-03T13:50:59;1.58;;;1.45;;
46282;SDS011;32017;43.700;11.820;2023-04-03T13:53:20;1.42;;;1.35;;
46282;SDS011;32017;43.700;11.820;2023-04-03T13:58:22;1.20;;;1.20;;
46282;SDS011;32017;43.700;11.820;2023-04-03T14:00:53;1.40;;;1.30;;
46282;SDS011;32017;43.700;11.820;2023-04-03T14:03:22;1.13;;;1.13;;
46282;SDS011;32017;43.700;11.820;2023-04-03T14:05:42;1.40;;;1.40;;
46282;SDS011;32017;43.700;11.820;2023-04-03T14:08:04;1.50;;;1.50;;
46282;SDS011;32017;43.700;11.820;2023-04-03T14:10:26;1.58;;;1.23;;
46282;SDS011;32017;43.700;11.820;2023-04-03T14:12:46;2.15;;;1.65;;
46282;SDS011;32017;43.700;11.820;2023-04-03T14:15:18;1.52;;;1.52;;
46282;SDS011;32017;43.700;11.820;2023-04-03T14:17:39;1.30;;;1.20;;
46282;SDS011;32017;43.700;11.820;2023-04-03T14:20:00;1.40;;;1.40;;
46282;SDS011;32017;43.700;11.820;2023-04-03T14:22:22;6.70;;;1.58;;
46282;SDS011;32017;43.700;11.820;2023-04-03T14:24:43;1.75;;;1.65;;
46282;SDS011;32017;43.700;11.820;2023-04-03T14:27:05;1.50;;;1.40;;
46282;SDS011;32017;43.700;11.820;2023-04-03T14:29:31;1.20;;;1.20;;
46282;SDS011;32017;43.700;11.820;2023-04-03T14:31:51;1.20;;;1.20;;
46282;SDS011;32017;43.700;11.820;2023-04-03T14:34:30;2.15;;;1.38;;
46282;SDS011;32017;43.700;11.820;2023-04-03T14:36:50;1.20;;;1.20;;
46282;SDS011;32017;43.700;11.820;2023-04-03T14:39:16;4.07;;;1.52;;
46282;SDS011;32017;43.700;11.820;2023-04-03T14:41:37;1.65;;;1.42;;
46282;SDS011;32017;43.700;11.820;2023-04-03T14:43:57;1.63;;;1.52;;
46282;SDS011;32017;43.700;11.820;2023-04-03T14:46:19;1.73;;;1.63;;
46282;SDS011;32017;43.700;11.820;2023-04-03T14:48:39;2.20;;;1.47;;
46282;SDS011;32017;43.700;11.820;2023-04-03T14:51:00;1.85;;;1.40;;
46282;SDS011;32017;43.700;11.820;2023-04-03T14:53:25;2.13;;;1.23;;
46282;SDS011;32017;43.700;11.820;2023-04-03T14:55:57;1.85;;;1.48;;
46282;SDS011;32017;43.700;11.820;2023-04-03T14:58:19;1.40;;;1.40;;
46282;SDS011;32017;43.700;11.820;2023-04-03T15:00:40;1.23;;;1.23;;
46282;SDS011;32017;43.700;11.820;2023-04-03T15:03:00;1.55;;;1.45;;
46282;SDS011;32017;43.700;11.820;2023-04-03T15:05:20;1.40;;;1.30;;
46282;SDS011;32017;43.700;11.820;2023-04-03T15:07:42;2.67;;;1.10;;
46282;SDS011;32017;43.700;11.820;2023-04-03T15:10:06;1.30;;;1.30;;
46282;SDS011;32017;43.700;11.820;2023-04-03T15:12:33;1.42;;;1.40;;
46282;SDS011;32017;43.700;11.820;2023-04-03T15:14:53;1.20;;;1.20;;
46282;SDS011;32017;43.700;11.820;2023-04-03T15:17:22;1.85;;;1.10;;
46282;SDS011;32017;43.700;11.820;2023-04-03T15:19:42;1.33;;;1.23;;
46282;SDS011;32017;43.700;11.820;2023-04-03T15:22:02;1.70;;;1.10;;
46282;SDS011;32017;43.700;11.820;2023-04-03T15:24:23;1.15;;;1.15;;
46282;SDS011;32017;43.700;11.820;2023-04-03T15:26:43;2.47;;;2.35;;
46282;SDS011;32017;43.700;11.820;2023-04-03T15:29:04;2.13;;;2.13;;
46282;SDS011;32017;43.700;11.820;2023-04-03T15:31:24;1.40;;;1.30;;